| Back to River Map | <<< Previous Forecast Point | | | Next Forecast Point >>> | Printer Version | Graph Version |  |
|
BEAR CREEK - MCKEE ROAD (MEEC1)
| Latitude: 37.31º N | Longitude: 120.44º W | Elevation: 187 Feet | | Forecast Type: Official Location |
| Location: Merced County in California | Bulletin Group: San Joaquin | River Group: San Joaquin |
| Issuance Time: | May 06 2026 at 7:37 AM PDT | Next Issuance: | May 07 2026 at 9:00 AM PDT
| |
| Action/Monitor: 17.0 Feet | Minor Flood: 23.0 Feet | Moderate Flood: 24.6 Feet | Major Flood: 25.6 Feet |
# Tabular Observed and Forecast Hydrograph Information
#
# Location: Bear Creek - McKee Road (MEEC1)
#
# File Generation Time: 05/06/2026 at 07:37 AM PDT
# Data Interval: 1 Hour
#
# Most Recent Date & Time of Maximum Observed: 05/05/2026 at 11:00 PM PDT
# Maximum Observed Stage: 6.09 Feet
# Maximum Observed Flow: 210 cfs
#
# Earliest Date & Time of Maximum Forecast: 05/06/2026 at 08:00 AM PDT
# Maximum Forecast Stage: 6.07 Feet
# Maximum Forecast Flow: 207 cfs
#
# OBSERVED
#
# Date & Time (Local) Stage (Feet) Flow (cfs) Trend Observed Status
# ---------------------------------------------------------------------------------
05/01/2026 07 AM PDT 5.80 163 Normal
05/01/2026 08 AM PDT 5.76 156 - Normal
05/01/2026 09 AM PDT 5.74 152 - Normal
05/01/2026 10 AM PDT 5.75 154 + Normal
05/01/2026 11 AM PDT 5.74 152 - Normal
05/01/2026 12 PM PDT 5.72 148 - Normal
05/01/2026 01 PM PDT 5.71 147 - Normal
05/01/2026 02 PM PDT 5.71 147 0 Normal
05/01/2026 03 PM PDT 5.71 147 0 Normal
05/01/2026 04 PM PDT 5.71 147 0 Normal
05/01/2026 05 PM PDT 5.74 152 + Normal
05/01/2026 06 PM PDT 5.76 156 + Normal
05/01/2026 07 PM PDT 5.70 145 - Normal
05/01/2026 08 PM PDT 5.69 143 - Normal
05/01/2026 09 PM PDT 5.74 152 + Normal
05/01/2026 10 PM PDT 5.77 157 + Normal
05/01/2026 11 PM PDT 5.78 159 + Normal
05/02/2026 12 AM PDT 5.77 157 - Normal
05/02/2026 01 AM PDT 5.78 159 + Normal
05/02/2026 02 AM PDT 5.77 157 - Normal
05/02/2026 03 AM PDT 5.75 154 - Normal
05/02/2026 04 AM PDT 5.74 152 - Normal
05/02/2026 05 AM PDT 5.75 154 + Normal
05/02/2026 06 AM PDT 5.75 154 0 Normal
05/02/2026 07 AM PDT 5.78 159 + Normal
05/02/2026 08 AM PDT 5.78 159 0 Normal
05/02/2026 09 AM PDT 5.80 163 + Normal
05/02/2026 10 AM PDT 5.79 161 - Normal
05/02/2026 11 AM PDT 5.78 159 - Normal
05/02/2026 12 PM PDT 5.76 156 - Normal
05/02/2026 01 PM PDT 5.73 150 - Normal
05/02/2026 02 PM PDT 5.73 150 0 Normal
05/02/2026 03 PM PDT 5.75 154 + Normal
05/02/2026 04 PM PDT 5.76 156 + Normal
05/02/2026 05 PM PDT 5.76 156 0 Normal
05/02/2026 06 PM PDT 5.80 163 + Normal
05/02/2026 07 PM PDT 5.80 163 0 Normal
05/02/2026 08 PM PDT 5.76 156 - Normal
05/02/2026 09 PM PDT 5.75 154 - Normal
05/02/2026 10 PM PDT 5.74 152 - Normal
05/02/2026 11 PM PDT 5.77 157 + Normal
05/03/2026 12 AM PDT 5.79 161 + Normal
05/03/2026 01 AM PDT 5.78 159 - Normal
05/03/2026 02 AM PDT 5.77 157 - Normal
05/03/2026 03 AM PDT 5.74 152 - Normal
05/03/2026 04 AM PDT 5.72 148 - Normal
05/03/2026 05 AM PDT 5.71 147 - Normal
05/03/2026 06 AM PDT 5.72 148 + Normal
05/03/2026 07 AM PDT 5.71 147 - Normal
05/03/2026 08 AM PDT 5.70 145 - Normal
05/03/2026 09 AM PDT 5.70 145 0 Normal
05/03/2026 10 AM PDT 5.69 143 - Normal
05/03/2026 11 AM PDT 5.68 141 - Normal
05/03/2026 12 PM PDT 5.67 140 - Normal
05/03/2026 01 PM PDT 5.73 150 + Normal
05/03/2026 02 PM PDT 5.77 157 + Normal
05/03/2026 03 PM PDT 5.78 159 + Normal
05/03/2026 04 PM PDT 5.78 159 0 Normal
05/03/2026 05 PM PDT 5.77 157 - Normal
05/03/2026 06 PM PDT 5.81 164 + Normal
05/03/2026 07 PM PDT 5.92 182 + Normal
05/03/2026 08 PM PDT 5.99 195 + Normal
05/03/2026 09 PM PDT 5.99 195 0 Normal
05/03/2026 10 PM PDT 6.00 197 + Normal
05/03/2026 11 PM PDT 6.01 198 + Normal
05/04/2026 12 AM PDT 6.01 198 0 Normal
05/04/2026 01 AM PDT 6.02 200 + Normal
05/04/2026 02 AM PDT 6.02 200 0 Normal
05/04/2026 03 AM PDT 6.02 200 0 Normal
05/04/2026 04 AM PDT 6.02 200 0 Normal
05/04/2026 05 AM PDT 5.99 195 - Normal
05/04/2026 06 AM PDT 6.01 198 + Normal
05/04/2026 07 AM PDT 6.06 205 + Normal
05/04/2026 08 AM PDT 6.05 204 - Normal
05/04/2026 09 AM PDT 6.06 205 + Normal
05/04/2026 10 AM PDT 6.02 200 - Normal
05/04/2026 11 AM PDT 6.01 198 - Normal
05/04/2026 12 PM PDT 5.99 195 - Normal
05/04/2026 01 PM PDT 5.98 193 - Normal
05/04/2026 02 PM PDT 5.99 195 + Normal
05/04/2026 03 PM PDT 5.98 193 - Normal
05/04/2026 04 PM PDT 5.98 193 0 Normal
05/04/2026 05 PM PDT 6.00 197 + Normal
05/04/2026 06 PM PDT 5.99 195 - Normal
05/04/2026 07 PM PDT 5.96 189 - Normal
05/04/2026 08 PM PDT 5.98 193 + Normal
05/04/2026 09 PM PDT 6.00 197 + Normal
05/04/2026 10 PM PDT 5.97 191 - Normal
05/04/2026 11 PM PDT 5.97 191 0 Normal
05/05/2026 12 AM PDT 6.00 197 + Normal
05/05/2026 01 AM PDT 5.98 193 - Normal
05/05/2026 02 AM PDT 5.98 193 0 Normal
05/05/2026 03 AM PDT 5.98 193 0 Normal
05/05/2026 04 AM PDT 5.99 195 + Normal
05/05/2026 05 AM PDT 5.97 191 - Normal
05/05/2026 06 AM PDT 6.00 197 + Normal
05/05/2026 07 AM PDT 6.02 200 + Normal
05/05/2026 08 AM PDT 6.03 201 + Normal
05/05/2026 09 AM PDT 6.02 200 - Normal
05/05/2026 10 AM PDT 6.02 200 0 Normal
05/05/2026 11 AM PDT 6.02 200 0 Normal
05/05/2026 12 PM PDT 6.03 201 + Normal
05/05/2026 01 PM PDT 6.02 200 - Normal
05/05/2026 02 PM PDT 6.02 200 0 Normal
05/05/2026 03 PM PDT 6.01 198 - Normal
05/05/2026 04 PM PDT 6.02 200 + Normal
05/05/2026 05 PM PDT 6.01 198 - Normal
05/05/2026 06 PM PDT 5.98 193 - Normal
05/05/2026 07 PM PDT 6.00 197 + Normal
05/05/2026 08 PM PDT 6.05 204 + Normal
05/05/2026 09 PM PDT 6.06 205 + Normal
05/05/2026 10 PM PDT 6.08 208 + Normal
05/05/2026 11 PM PDT 6.09 210 + Normal
05/06/2026 12 AM PDT 6.08 208 - Normal
05/06/2026 01 AM PDT 6.08 208 0 Normal
05/06/2026 02 AM PDT 6.07 207 - Normal
05/06/2026 03 AM PDT 6.08 208 + Normal
05/06/2026 04 AM PDT 6.07 207 - Normal
05/06/2026 05 AM PDT 6.07 207 0 Normal
05/06/2026 06 AM PDT 6.07 207 0 Normal
05/06/2026 07 AM PDT 6.07 207 0 Normal
#
# FORECAST
#
# Date & Time (Local) Stage (Feet) Flow (cfs) Trend Forecast Status
# ---------------------------------------------------------------------------------
05/06/2026 08 AM PDT 6.07 207 Normal
05/06/2026 09 AM PDT 6.07 207 0 Normal
05/06/2026 10 AM PDT 6.07 207 0 Normal
05/06/2026 11 AM PDT 6.07 207 0 Normal
05/06/2026 12 PM PDT 6.07 207 0 Normal
05/06/2026 01 PM PDT 6.07 207 0 Normal
05/06/2026 02 PM PDT 6.07 207 0 Normal
05/06/2026 03 PM PDT 6.07 207 0 Normal
05/06/2026 04 PM PDT 6.07 207 0 Normal
05/06/2026 05 PM PDT 6.06 205 - Normal
05/06/2026 06 PM PDT 6.06 205 0 Normal
05/06/2026 07 PM PDT 6.06 205 0 Normal
05/06/2026 08 PM PDT 6.06 205 0 Normal
05/06/2026 09 PM PDT 6.06 205 0 Normal
05/06/2026 10 PM PDT 6.06 205 0 Normal
05/06/2026 11 PM PDT 6.06 205 0 Normal
05/07/2026 12 AM PDT 6.06 205 0 Normal
05/07/2026 01 AM PDT 6.06 205 0 Normal
05/07/2026 02 AM PDT 6.06 205 0 Normal
05/07/2026 03 AM PDT 6.06 205 0 Normal
05/07/2026 04 AM PDT 6.06 205 0 Normal
05/07/2026 05 AM PDT 6.06 205 0 Normal
05/07/2026 06 AM PDT 6.06 205 0 Normal
05/07/2026 07 AM PDT 6.06 205 0 Normal
05/07/2026 08 AM PDT 6.06 205 0 Normal
05/07/2026 09 AM PDT 6.05 204 - Normal
05/07/2026 10 AM PDT 6.05 204 0 Normal
05/07/2026 11 AM PDT 6.05 204 0 Normal
05/07/2026 12 PM PDT 6.05 204 0 Normal
05/07/2026 01 PM PDT 6.05 204 0 Normal
05/07/2026 02 PM PDT 6.05 204 0 Normal
05/07/2026 03 PM PDT 6.05 204 0 Normal
05/07/2026 04 PM PDT 6.05 204 0 Normal
05/07/2026 05 PM PDT 6.05 204 0 Normal
05/07/2026 06 PM PDT 6.05 204 0 Normal
05/07/2026 07 PM PDT 6.05 204 0 Normal
05/07/2026 08 PM PDT 6.05 204 0 Normal
05/07/2026 09 PM PDT 6.05 204 0 Normal
05/07/2026 10 PM PDT 6.05 204 0 Normal
05/07/2026 11 PM PDT 6.05 204 0 Normal
05/08/2026 12 AM PDT 6.05 204 0 Normal
05/08/2026 01 AM PDT 6.05 204 0 Normal
05/08/2026 02 AM PDT 6.05 204 0 Normal
05/08/2026 03 AM PDT 6.05 204 0 Normal
05/08/2026 04 AM PDT 6.05 204 0 Normal
05/08/2026 05 AM PDT 6.04 203 - Normal
05/08/2026 06 AM PDT 6.04 203 0 Normal
05/08/2026 07 AM PDT 6.04 203 0 Normal
05/08/2026 08 AM PDT 6.04 203 0 Normal
05/08/2026 09 AM PDT 6.04 203 0 Normal
05/08/2026 10 AM PDT 6.04 203 0 Normal
05/08/2026 11 AM PDT 6.04 203 0 Normal
05/08/2026 12 PM PDT 6.04 203 0 Normal
05/08/2026 01 PM PDT 6.04 203 0 Normal
05/08/2026 02 PM PDT 6.04 203 0 Normal
05/08/2026 03 PM PDT 6.04 203 0 Normal
05/08/2026 04 PM PDT 6.04 203 0 Normal
05/08/2026 05 PM PDT 6.04 203 0 Normal
05/08/2026 06 PM PDT 6.04 203 0 Normal
05/08/2026 07 PM PDT 6.04 203 0 Normal
05/08/2026 08 PM PDT 6.04 203 0 Normal
05/08/2026 09 PM PDT 6.04 203 0 Normal
05/08/2026 10 PM PDT 6.04 203 0 Normal
05/08/2026 11 PM PDT 6.04 203 0 Normal
05/09/2026 12 AM PDT 6.04 203 0 Normal
05/09/2026 01 AM PDT 6.04 203 0 Normal
05/09/2026 02 AM PDT 6.03 201 - Normal
05/09/2026 03 AM PDT 6.03 201 0 Normal
05/09/2026 04 AM PDT 6.03 201 0 Normal
05/09/2026 05 AM PDT 6.03 201 0 Normal
05/09/2026 06 AM PDT 6.03 201 0 Normal
05/09/2026 07 AM PDT 6.03 201 0 Normal
05/09/2026 08 AM PDT 6.03 201 0 Normal
05/09/2026 09 AM PDT 6.03 201 0 Normal
05/09/2026 10 AM PDT 6.03 201 0 Normal
05/09/2026 11 AM PDT 6.03 201 0 Normal
05/09/2026 12 PM PDT 6.03 201 0 Normal
05/09/2026 01 PM PDT 6.03 201 0 Normal
05/09/2026 02 PM PDT 6.03 201 0 Normal
05/09/2026 03 PM PDT 6.03 201 0 Normal
05/09/2026 04 PM PDT 6.03 201 0 Normal
05/09/2026 05 PM PDT 6.03 201 0 Normal
05/09/2026 06 PM PDT 6.03 201 0 Normal
05/09/2026 07 PM PDT 6.03 201 0 Normal
05/09/2026 08 PM PDT 6.03 201 0 Normal
05/09/2026 09 PM PDT 6.02 200 - Normal
05/09/2026 10 PM PDT 6.02 200 0 Normal
05/09/2026 11 PM PDT 6.02 200 0 Normal
05/10/2026 12 AM PDT 6.02 200 0 Normal
05/10/2026 01 AM PDT 6.02 200 0 Normal
05/10/2026 02 AM PDT 6.02 200 0 Normal
05/10/2026 03 AM PDT 6.02 200 0 Normal
05/10/2026 04 AM PDT 6.02 200 0 Normal
05/10/2026 05 AM PDT 6.02 200 0 Normal
05/10/2026 06 AM PDT 6.02 200 0 Normal
05/10/2026 07 AM PDT 6.02 200 0 Normal
05/10/2026 08 AM PDT 6.02 200 0 Normal
05/10/2026 09 AM PDT 6.02 200 0 Normal
05/10/2026 10 AM PDT 6.02 200 0 Normal
05/10/2026 11 AM PDT 6.02 200 0 Normal
05/10/2026 12 PM PDT 6.02 200 0 Normal
05/10/2026 01 PM PDT 6.02 200 0 Normal
05/10/2026 02 PM PDT 6.01 198 - Normal
05/10/2026 03 PM PDT 6.01 198 0 Normal
05/10/2026 04 PM PDT 6.01 198 0 Normal
05/10/2026 05 PM PDT 6.01 198 0 Normal
05/10/2026 06 PM PDT 6.01 198 0 Normal
05/10/2026 07 PM PDT 6.01 198 0 Normal
05/10/2026 08 PM PDT 6.01 198 0 Normal
05/10/2026 09 PM PDT 6.01 198 0 Normal
05/10/2026 10 PM PDT 6.01 198 0 Normal
05/10/2026 11 PM PDT 6.01 198 0 Normal
05/11/2026 12 AM PDT 6.01 198 0 Normal
05/11/2026 01 AM PDT 6.01 198 0 Normal
05/11/2026 02 AM PDT 6.01 198 0 Normal
05/11/2026 03 AM PDT 6.01 198 0 Normal
05/11/2026 04 AM PDT 6.01 198 0 Normal
05/11/2026 05 AM PDT 6.01 198 0 Normal
#
# NOTE 1: Stages are rounded to the nearest hundredth (.01) of a foot.
# NOTE 2: Flows are rounded to the nearest (1) cfs.
# NOTE 3: Trends are determined using hourly change in unrounded stage and flow.
# NOTE 4: Maximum Values are determined using unrounded stage and flow.
|